Aircraft
UPR1002 PT-CAE C 208B
SBFL
Hercílio Luz International Airport
SBCO
Canoas Air Force Base
Pilot:: Claudenir
Aircraft:: Black Square 208B Grand Caravan UP Linhas Aereas
Alternate: SBSM
Network: ivao
FLIGHT DETAILS
Distance: 193nm Duration 01h 20m
Cruise Speed: Flight Level: 16000
Validation: Validated Type Charter
Flight Fuel
ZFW: 2226
Block Fuel/Initial FOB: 512
Flight Fuel: 42
Cargo
Passengers: 6
Cargo: 0
ROUTE
ROUTE: PAJAM Z4 UKBOV
REMARKS:
DATE
Date: 26-05-04
Departure Time: 1738
Cargo: 0
FLIGHT DETAILS
Crashed: No
Validator Comments: Validado por Rafael
Flight Rating: 92
LANDING ANALYSIS
Landing wind: 351º/5 kt
Landing heading: 311º
Landing VS:: -22 ft/min
Landing IAS:: 62 kt
Landing Force G: 1 G
Landing Bank: -1
Landing Pitch: -4
Landing Flaps: 100
Navigation Lights: ON
Landing Lights: OFF
Beacon Lights: ON
Strobe Lights: ON
viserfly

ALTITUDE CHART

viserfly

MAIN EVENTS

DATE EVENT IAS ALTITUDE
2026-05-04 17:24:15 FLYacars version 1.3.5 6 26
2026-05-04 17:24:15 Starting Engine 1 6 26
2026-05-04 17:25:01 Landing Lights ON 8 26
2026-05-04 17:25:03 Landing Lights OFF 8 26
2026-05-04 17:25:05 Strobe Lights ON 8 26
2026-05-04 17:25:06 Aircraft boarding in progress 8 26
2026-05-04 17:25:06 Navigation Lights ON 8 26
2026-05-04 17:25:06 Beacon Lights ON 8 26
2026-05-04 17:28:45 FLAPS 33% 7 26
2026-05-04 17:28:51 FLAPS 66% 8 26
2026-05-04 17:30:34 Taxi Lights ON 11 26
2026-05-04 17:30:34 Aircraft taxiing to runway 12 26
2026-05-04 17:31:19 Taxi speed above 25kt 13 26
2026-05-04 17:37:39 Landing Lights ON 5 26
2026-05-04 17:38:53 Detected Take-off roll, HDG 315, IAS 91kt, GS 80kt, G-force 1.0g, Pitch -0.3deg, Bank 0.9deg, Wind 340/16kt, Temp 22°C 91 26
2026-05-04 17:38:53 Airborne 91 26
2026-05-04 17:40:19 FLAPS 33% 107kt, ALT 1731ft 107 1731
2026-05-04 17:40:20 FLAPS 0% 107kt, ALT 1739ft 107 1739
2026-05-04 17:48:29 Landing lights ON above 10000fts 116 11001
2026-05-04 17:48:45 Landing Lights OFF 116 11272
2026-05-04 17:48:50 Taxi Lights OFF 116 11362
2026-05-04 17:55:03 Aircraft on Top Of Climb at 16237ft, IAS 121kt, GS 136kt, HDG 247deg, TAT -5deg, WIND 267/29kt 121 16237
2026-05-04 18:41:39 Overspeed flag 158 16252
2026-05-04 18:42:09 Aircraft on Top Of Descent at 15497ft, IAS 168kt, GS 186kt, HDG 254deg, TAT -4deg, WIND 270/36kt 168 15497
2026-05-04 18:50:21 Landing lights OFF below 10000fts 141 8999
2026-05-04 18:51:50 FLAPS 33% 165kt, ALT 5025ft 165 5025
2026-05-04 18:52:01 FLAPS 66% 154kt, ALT 4580ft 154 4580
2026-05-04 18:56:02 FLAPS 100% 120kt, ALT 1436ft 120 1436
2026-05-04 18:59:26 Landed at destination with a landing rate of -22fpm, G-force 1.0g, Pitch -3.5deg, Bank -0.5deg, HDG 311deg, IAS 62kt, GS 61kt, Wind 351/05kt, Temp 24°C 62 32
2026-05-04 18:59:35 Aircraft taxiing to apron 26 31
2026-05-04 18:59:35 Taxing and taxi lights OFF 26 31
2026-05-04 18:59:39 FLAPS 66% 23 31
2026-05-04 18:59:40 FLAPS 0% 23 31
2026-05-04 19:00:22 Taxi Lights ON 3 30
2026-05-04 19:02:22 Simulator Paused 4 28
2026-05-04 19:02:22 Simulator Un-Paused 4 28
2026-05-04 19:02:29 Engine 1 shutdown 4 28
2026-05-04 19:02:29 Starting Engine 1 4 28
2026-05-04 19:02:34 Aircraft at gate/stand, ground services are moving into position, disembarkation has begun. Remaining FOB 470kg FLYacars v1.3.5 4 28
viserfly

ACARS DATA

DATE IAS GS ALTITUDE FUEL CONSUMED OAT FLIGHT STATUS
2026-05-04 17:24:45 7 0 26 -184 22 BOARDING
2026-05-04 17:25:15 7 0 26 -184 22 BOARDING
2026-05-04 17:25:45 7 0 26 -184 22 BOARDING
2026-05-04 17:26:15 5 0 26 -184 22 BOARDING
2026-05-04 17:26:45 7 0 26 -183 22 BOARDING
2026-05-04 17:27:15 5 0 26 -182 22 BOARDING
2026-05-04 17:27:45 8 0 26 -182 22 BOARDING
2026-05-04 17:28:15 8 0 26 -181 22 BOARDING
2026-05-04 17:28:45 8 0 26 -180 22 BOARDING
2026-05-04 17:29:15 5 0 26 -180 22 BOARDING
2026-05-04 17:29:45 6 0 26 -179 22 BOARDING
2026-05-04 17:30:15 6 0 26 -178 22 BOARDING
2026-05-04 17:30:45 18 9 26 -178 22 TAXI TO RUNWAY
2026-05-04 17:31:15 12 23 26 -177 22 TAXI TO RUNWAY
2026-05-04 17:31:45 16 29 26 -176 22 TAXI TO RUNWAY
2026-05-04 17:32:15 13 23 26 -175 22 TAXI TO RUNWAY
2026-05-04 17:32:45 0 0 26 -175 22 TAXI TO RUNWAY
2026-05-04 17:33:15 0 0 26 -174 22 TAXI TO RUNWAY
2026-05-04 17:33:45 0 0 26 -173 22 TAXI TO RUNWAY
2026-05-04 17:34:15 15 28 26 -172 22 TAXI TO RUNWAY
2026-05-04 17:34:45 0 11 26 -172 22 TAXI TO RUNWAY
2026-05-04 17:35:15 0 8 26 -171 22 TAXI TO RUNWAY
2026-05-04 17:35:45 6 20 26 -170 22 TAXI TO RUNWAY
2026-05-04 17:36:15 20 30 26 -169 22 TAXI TO RUNWAY
2026-05-04 17:36:45 21 18 26 -169 22 TAXI TO RUNWAY
2026-05-04 17:37:15 5 0 26 -168 22 TAXI TO RUNWAY
2026-05-04 17:37:45 5 0 26 -168 22 TAXI TO RUNWAY
2026-05-04 17:38:15 9 1 26 -167 22 TAXI TO RUNWAY
2026-05-04 17:38:45 51 42 26 -166 22 TAXI TO RUNWAY
2026-05-04 17:39:15 106 99 355 -164 22 TAKEOFF
2026-05-04 17:39:45 110 123 1132 -162 20 INITIAL CLIMB
2026-05-04 17:40:15 106 121 1647 -161 18 INITIAL CLIMB
2026-05-04 17:40:45 137 150 1979 -159 17 INITIAL CLIMB
2026-05-04 17:41:15 133 150 2567 -158 16 CLIMB
2026-05-04 17:41:45 128 147 3161 -156 15 CLIMB
2026-05-04 17:42:15 131 151 3781 -155 14 CLIMB
2026-05-04 17:42:45 126 145 4389 -153 14 CLIMB
2026-05-04 17:43:15 126 141 5109 -152 13 CLIMB
2026-05-04 17:43:45 123 135 5793 -150 12 CLIMB
2026-05-04 17:44:15 121 127 6490 -149 11 CLIMB
2026-05-04 17:44:45 111 117 7171 -147 10 CLIMB
2026-05-04 17:45:15 116 124 7778 -146 9 CLIMB
2026-05-04 17:45:45 122 131 8291 -144 8 CLIMB
2026-05-04 17:46:15 127 136 8805 -143 7 CLIMB
2026-05-04 17:46:45 126 133 9283 -142 7 CLIMB
2026-05-04 17:47:15 122 131 9786 -140 6 CLIMB
2026-05-04 17:47:45 124 128 10269 -139 5 CLIMB
2026-05-04 17:48:15 117 126 10769 -137 4 CLIMB
2026-05-04 17:48:45 116 124 11272 -136 3 CLIMB
2026-05-04 17:49:15 117 127 11780 -135 2 CLIMB
2026-05-04 17:49:45 117 126 12133 -133 1 CLIMB
2026-05-04 17:50:15 118 127 12496 -132 0 CLIMB
2026-05-04 17:50:45 120 131 12910 -131 0 CLIMB
2026-05-04 17:51:15 122 134 13313 -130 0 CLIMB
2026-05-04 17:51:45 121 135 13718 -128 -1 CLIMB
2026-05-04 17:52:15 122 135 14111 -127 -2 CLIMB
2026-05-04 17:52:45 120 133 14506 -126 -3 CLIMB
2026-05-04 17:53:15 120 134 14919 -125 -3 CLIMB
2026-05-04 17:53:45 119 133 15298 -123 -4 CLIMB
2026-05-04 17:54:15 118 132 15711 -122 -5 CLIMB
2026-05-04 17:54:45 116 129 16089 -121 -5 CLIMB
2026-05-04 17:55:15 126 141 16268 -120 -5 ENROUTE
2026-05-04 17:55:45 134 152 16300 -119 -5 ENROUTE
2026-05-04 17:56:15 138 158 16305 -117 -5 ENROUTE
2026-05-04 17:56:45 140 161 16300 -116 -5 ENROUTE
2026-05-04 17:57:15 141 161 16299 -115 -5 ENROUTE
2026-05-04 17:57:45 141 161 16308 -114 -5 ENROUTE
2026-05-04 17:58:15 142 163 16306 -113 -5 ENROUTE
2026-05-04 17:58:45 142 163 16300 -111 -5 ENROUTE
2026-05-04 17:59:15 142 162 16299 -110 -5 ENROUTE
2026-05-04 17:59:45 142 162 16301 -109 -5 ENROUTE
2026-05-04 18:00:15 142 162 16304 -108 -5 ENROUTE
2026-05-04 18:00:45 142 163 16297 -107 -5 ENROUTE
2026-05-04 18:01:15 141 161 16301 -106 -5 ENROUTE
2026-05-04 18:01:45 141 161 16304 -104 -5 ENROUTE
2026-05-04 18:02:15 141 161 16297 -103 -5 ENROUTE
2026-05-04 18:02:45 141 161 16301 -102 -5 ENROUTE
2026-05-04 18:03:15 141 161 16304 -101 -5 ENROUTE
2026-05-04 18:03:45 142 162 16306 -100 -5 ENROUTE
2026-05-04 18:04:15 142 162 16302 -98 -5 ENROUTE
2026-05-04 18:04:45 142 162 16305 -97 -5 ENROUTE
2026-05-04 18:05:15 143 163 16305 -96 -5 ENROUTE
2026-05-04 18:05:45 142 162 16300 -95 -5 ENROUTE
2026-05-04 18:06:15 142 162 16301 -94 -5 ENROUTE
2026-05-04 18:06:45 140 162 16293 -92 -5 ENROUTE
2026-05-04 18:07:15 141 160 16302 -91 -5 ENROUTE
2026-05-04 18:07:45 141 161 16303 -90 -5 ENROUTE
2026-05-04 18:08:15 142 161 16297 -89 -5 ENROUTE
2026-05-04 18:08:45 142 161 16298 -88 -5 ENROUTE
2026-05-04 18:09:15 141 161 16295 -87 -5 ENROUTE
2026-05-04 18:09:45 141 160 16298 -85 -5 ENROUTE
2026-05-04 18:10:15 141 160 16296 -84 -5 ENROUTE
2026-05-04 18:10:45 141 160 16297 -83 -5 ENROUTE
2026-05-04 18:11:15 142 161 16296 -82 -5 ENROUTE
2026-05-04 18:11:45 141 160 16293 -81 -5 ENROUTE
2026-05-04 18:12:15 139 157 16272 -79 -5 ENROUTE
2026-05-04 18:12:45 139 157 16291 -78 -5 ENROUTE
2026-05-04 18:13:15 139 172 16297 -77 -5 ENROUTE
2026-05-04 18:13:45 141 174 16294 -76 -5 ENROUTE
2026-05-04 18:14:15 140 163 16295 -75 -5 ENROUTE
2026-05-04 18:14:45 140 160 16285 -74 -5 ENROUTE
2026-05-04 18:15:15 141 161 16288 -72 -5 ENROUTE
2026-05-04 18:15:45 141 160 16286 -71 -5 ENROUTE
2026-05-04 18:16:15 141 160 16291 -70 -5 ENROUTE
2026-05-04 18:16:45 141 161 16288 -69 -5 ENROUTE
2026-05-04 18:17:15 142 161 16291 -68 -5 ENROUTE
2026-05-04 18:17:45 142 160 16274 -66 -5 ENROUTE
2026-05-04 18:18:15 141 160 16291 -65 -5 ENROUTE
2026-05-04 18:18:45 142 161 16286 -64 -5 ENROUTE
2026-05-04 18:19:15 142 161 16286 -63 -5 ENROUTE
2026-05-04 18:19:45 142 162 16285 -62 -5 ENROUTE
2026-05-04 18:20:15 142 163 16282 -60 -5 ENROUTE
2026-05-04 18:20:45 142 162 16282 -59 -5 ENROUTE
2026-05-04 18:21:15 142 161 16283 -58 -5 ENROUTE
2026-05-04 18:21:45 141 161 16286 -57 -5 ENROUTE
2026-05-04 18:22:15 142 162 16285 -56 -5 ENROUTE
2026-05-04 18:22:45 142 163 16280 -55 -5 ENROUTE
2026-05-04 18:23:15 142 161 16273 -53 -5 ENROUTE
2026-05-04 18:23:45 138 158 16251 -52 -5 ENROUTE
2026-05-04 18:24:15 138 155 16269 -51 -5 ENROUTE
2026-05-04 18:24:45 138 156 16268 -50 -5 ENROUTE
2026-05-04 18:25:15 140 158 16276 -49 -5 ENROUTE
2026-05-04 18:25:45 141 160 16326 -47 -5 ENROUTE
2026-05-04 18:26:15 148 169 16342 -46 -5 ENROUTE
2026-05-04 18:26:45 152 173 16350 -44 -5 ENROUTE
2026-05-04 18:27:15 153 174 16344 -43 -5 ENROUTE
2026-05-04 18:27:45 154 175 16353 -41 -5 ENROUTE
2026-05-04 18:28:15 154 176 16341 -40 -5 ENROUTE
2026-05-04 18:28:45 154 175 16348 -38 -5 ENROUTE
2026-05-04 18:29:15 157 177 16348 -36 -5 ENROUTE
2026-05-04 18:29:45 154 175 16334 -35 -5 ENROUTE
2026-05-04 18:30:15 153 174 16341 -33 -5 ENROUTE
2026-05-04 18:30:45 153 174 16340 -32 -5 ENROUTE
2026-05-04 18:31:15 153 174 16343 -30 -5 ENROUTE
2026-05-04 18:31:45 153 174 16338 -29 -5 ENROUTE
2026-05-04 18:32:15 153 175 16326 -27 -5 ENROUTE
2026-05-04 18:32:45 152 173 16340 -26 -5 ENROUTE
2026-05-04 18:33:15 153 171 16341 -24 -5 ENROUTE
2026-05-04 18:33:45 153 169 16339 -22 -5 ENROUTE
2026-05-04 18:34:15 153 169 16338 -21 -5 ENROUTE
2026-05-04 18:34:45 153 169 16335 -19 -5 ENROUTE
2026-05-04 18:35:15 152 168 16340 -18 -5 ENROUTE
2026-05-04 18:35:45 153 169 16340 -16 -5 ENROUTE
2026-05-04 18:36:15 153 169 16339 -15 -5 ENROUTE
2026-05-04 18:36:45 155 172 16336 -13 -5 ENROUTE
2026-05-04 18:37:15 152 168 16292 -11 -5 ENROUTE
2026-05-04 18:37:45 150 165 16307 -10 -5 ENROUTE
2026-05-04 18:38:15 153 169 16337 -8 -5 ENROUTE
2026-05-04 18:38:45 151 167 16292 -7 -5 ENROUTE
2026-05-04 18:39:15 153 168 16322 -5 -5 ENROUTE
2026-05-04 18:39:45 152 168 16335 -4 -5 ENROUTE
2026-05-04 18:40:15 154 170 16334 -2 -5 ENROUTE
2026-05-04 18:40:45 153 170 16327 -1 -5 ENROUTE
2026-05-04 18:41:15 154 170 16335 1 -5 ENROUTE
2026-05-04 18:41:45 163 181 16126 3 -5 DESCENT
2026-05-04 18:42:15 168 186 15348 4 -4 DESCENT
2026-05-04 18:42:45 169 187 14548 5 -2 DESCENT
2026-05-04 18:43:15 170 187 13743 6 -1 DESCENT
2026-05-04 18:43:45 171 187 12943 7 0 DESCENT
2026-05-04 18:44:15 173 190 12146 8 1 DESCENT
2026-05-04 18:44:45 166 179 11345 9 2 DESCENT
2026-05-04 18:45:15 156 167 10544 10 3 DESCENT
2026-05-04 18:45:45 142 149 10224 11 4 DESCENT
2026-05-04 18:46:15 130 134 10142 12 4 ENROUTE
2026-05-04 18:46:45 121 125 10123 13 4 ENROUTE
2026-05-04 18:47:15 117 120 10124 14 4 ENROUTE
2026-05-04 18:47:45 115 118 10122 15 4 ENROUTE
2026-05-04 18:48:15 114 117 10125 16 4 ENROUTE
2026-05-04 18:48:45 124 127 10135 17 4 ENROUTE
2026-05-04 18:49:15 132 138 10133 19 4 ENROUTE
2026-05-04 18:49:45 137 143 10128 20 4 ENROUTE
2026-05-04 18:50:15 141 152 9223 21 6 DESCENT
2026-05-04 18:50:45 143 158 8077 21 8 DESCENT
2026-05-04 18:51:15 145 160 6924 22 10 DESCENT
2026-05-04 18:51:45 163 177 5320 22 13 DESCENT
2026-05-04 18:52:15 118 129 4322 23 14 DESCENT
2026-05-04 18:52:45 122 110 3109 24 16 DESCENT
2026-05-04 18:53:15 91 77 2638 24 17 DESCENT
2026-05-04 18:53:45 87 78 2342 25 17 APPROACH
2026-05-04 18:54:15 95 86 2456 26 17 APPROACH
2026-05-04 18:54:45 112 103 2311 27 17 APPROACH
2026-05-04 18:55:15 118 110 1989 28 18 APPROACH
2026-05-04 18:55:45 118 113 1675 30 19 APPROACH
2026-05-04 18:56:15 99 93 1364 31 19 APPROACH
2026-05-04 18:56:45 83 78 1227 32 20 APPROACH
2026-05-04 18:57:15 79 74 1209 33 20 APPROACH
2026-05-04 18:57:45 96 91 1016 34 21 ON FINAL
2026-05-04 18:58:15 100 101 561 35 23 ON FINAL
2026-05-04 18:58:45 92 92 200 37 24 ON FINAL
2026-05-04 18:59:15 81 81 39 38 24 ON FINAL
2026-05-04 18:59:45 12 10 31 38 24 TAXI TO APRON
2026-05-04 19:00:15 3 0 30 39 24 TAXI TO APRON
2026-05-04 19:00:45 20 17 29 40 24 TAXI TO APRON
2026-05-04 19:01:15 23 21 28 41 24 TAXI TO APRON
2026-05-04 19:01:45 15 13 28 41 24 TAXI TO APRON
2026-05-04 19:02:15 3 0 28 42 24 TAXI TO APRON
  • Join our VA!

    It has been 11 years of great learning, friendships, and stories.

  • Sign up now!